sensor_id;sensor_type;location;lat;lon;timestamp;temperature;humidity
51615;DHT22;37695;52.960;6.188;2022-10-19T00:01:51;9.30;99.90
51615;DHT22;37695;52.960;6.188;2022-10-19T00:04:17;9.40;99.90
51615;DHT22;37695;52.960;6.188;2022-10-19T00:06:43;9.30;99.90
51615;DHT22;37695;52.960;6.188;2022-10-19T00:09:13;9.30;99.90
51615;DHT22;37695;52.960;6.188;2022-10-19T00:11:41;9.30;99.90
51615;DHT22;37695;52.960;6.188;2022-10-19T00:14:11;9.30;99.90
51615;DHT22;37695;52.960;6.188;2022-10-19T00:16:39;9.30;99.90
51615;DHT22;37695;52.960;6.188;2022-10-19T00:19:13;9.40;99.90
51615;DHT22;37695;52.960;6.188;2022-10-19T00:21:39;9.40;99.90
51615;DHT22;37695;52.960;6.188;2022-10-19T00:24:05;9.30;99.90
51615;DHT22;37695;52.960;6.188;2022-10-19T00:26:31;9.30;99.90
51615;DHT22;37695;52.960;6.188;2022-10-19T00:28:56;9.30;99.90
51615;DHT22;37695;52.960;6.188;2022-10-19T00:31:23;9.20;99.90
51615;DHT22;37695;52.960;6.188;2022-10-19T00:33:48;9.20;99.90
51615;DHT22;37695;52.960;6.188;2022-10-19T00:36:26;9.30;99.90
51615;DHT22;37695;52.960;6.188;2022-10-19T00:38:53;9.30;99.90
51615;DHT22;37695;52.960;6.188;2022-10-19T00:41:20;9.20;99.90
51615;DHT22;37695;52.960;6.188;2022-10-19T00:46:27;9.10;99.90
51615;DHT22;37695;52.960;6.188;2022-10-19T00:48:58;9.10;99.90
51615;DHT22;37695;52.960;6.188;2022-10-19T00:51:26;9.00;99.90
51615;DHT22;37695;52.960;6.188;2022-10-19T00:53:53;9.00;99.90
51615;DHT22;37695;52.960;6.188;2022-10-19T00:56:19;8.90;99.90
51615;DHT22;37695;52.960;6.188;2022-10-19T00:58:45;8.90;99.90
51615;DHT22;37695;52.960;6.188;2022-10-19T01:01:15;8.90;99.90
51615;DHT22;37695;52.960;6.188;2022-10-19T01:03:41;8.90;99.90
51615;DHT22;37695;52.960;6.188;2022-10-19T01:06:07;8.90;99.90
51615;DHT22;37695;52.960;6.188;2022-10-19T01:08:33;8.90;99.90
51615;DHT22;37695;52.960;6.188;2022-10-19T01:14:09;8.90;99.90
51615;DHT22;37695;52.960;6.188;2022-10-19T01:17:09;8.90;99.90
51615;DHT22;37695;52.960;6.188;2022-10-19T01:22:28;9.00;99.90
51615;DHT22;37695;52.960;6.188;2022-10-19T01:30:31;8.90;99.90
51615;DHT22;37695;52.960;6.188;2022-10-19T01:33:22;8.90;99.90
51615;DHT22;37695;52.960;6.188;2022-10-19T01:36:05;8.90;99.90
51615;DHT22;37695;52.960;6.188;2022-10-19T01:38:53;8.90;99.90
51615;DHT22;37695;52.960;6.188;2022-10-19T01:41:29;8.90;99.90
51615;DHT22;37695;52.960;6.188;2022-10-19T01:44:02;8.90;99.90
51615;DHT22;37695;52.960;6.188;2022-10-19T01:46:38;8.90;99.90
51615;DHT22;37695;52.960;6.188;2022-10-19T01:49:28;8.80;99.90
51615;DHT22;37695;52.960;6.188;2022-10-19T01:51:59;8.90;99.90
51615;DHT22;37695;52.960;6.188;2022-10-19T01:54:28;8.90;99.90
51615;DHT22;37695;52.960;6.188;2022-10-19T01:56:57;9.00;99.90
51615;DHT22;37695;52.960;6.188;2022-10-19T01:59:25;9.00;99.90
51615;DHT22;37695;52.960;6.188;2022-10-19T02:01:52;9.10;99.90
51615;DHT22;37695;52.960;6.188;2022-10-19T02:04:20;9.10;99.90
51615;DHT22;37695;52.960;6.188;2022-10-19T02:06:49;9.20;99.90
51615;DHT22;37695;52.960;6.188;2022-10-19T02:09:15;9.20;99.90
51615;DHT22;37695;52.960;6.188;2022-10-19T02:11:48;9.20;99.90
51615;DHT22;37695;52.960;6.188;2022-10-19T02:14:16;9.20;99.90
51615;DHT22;37695;52.960;6.188;2022-10-19T02:16:51;9.20;99.90
51615;DHT22;37695;52.960;6.188;2022-10-19T02:19:19;9.20;99.90
51615;DHT22;37695;52.960;6.188;2022-10-19T02:21:45;9.20;99.90
51615;DHT22;37695;52.960;6.188;2022-10-19T02:24:11;9.30;99.90
51615;DHT22;37695;52.960;6.188;2022-10-19T02:26:37;9.20;99.90
51615;DHT22;37695;52.960;6.188;2022-10-19T02:29:03;9.20;99.90
51615;DHT22;37695;52.960;6.188;2022-10-19T02:31:29;9.20;99.90
51615;DHT22;37695;52.960;6.188;2022-10-19T02:33:55;9.20;99.90
51615;DHT22;37695;52.960;6.188;2022-10-19T02:36:21;9.20;99.90
51615;DHT22;37695;52.960;6.188;2022-10-19T02:38:46;9.10;99.90
51615;DHT22;37695;52.960;6.188;2022-10-19T02:41:26;9.00;99.90
51615;DHT22;37695;52.960;6.188;2022-10-19T02:44:03;9.00;99.90
51615;DHT22;37695;52.960;6.188;2022-10-19T02:46:46;8.90;99.90
51615;DHT22;37695;52.960;6.188;2022-10-19T02:49:14;8.90;99.90
51615;DHT22;37695;52.960;6.188;2022-10-19T02:51:59;8.90;99.90
51615;DHT22;37695;52.960;6.188;2022-10-19T02:54:25;9.00;99.90
51615;DHT22;37695;52.960;6.188;2022-10-19T02:56:50;9.00;99.90
51615;DHT22;37695;52.960;6.188;2022-10-19T02:59:16;8.90;99.90
51615;DHT22;37695;52.960;6.188;2022-10-19T03:01:42;8.80;99.90
51615;DHT22;37695;52.960;6.188;2022-10-19T03:04:08;8.80;99.90
51615;DHT22;37695;52.960;6.188;2022-10-19T03:06:33;8.90;99.90
51615;DHT22;37695;52.960;6.188;2022-10-19T03:08:59;8.90;99.90
51615;DHT22;37695;52.960;6.188;2022-10-19T03:11:24;8.90;99.90
51615;DHT22;37695;52.960;6.188;2022-10-19T03:13:50;8.90;99.90
51615;DHT22;37695;52.960;6.188;2022-10-19T03:16:15;8.90;99.90
51615;DHT22;37695;52.960;6.188;2022-10-19T03:18:41;9.00;99.90
51615;DHT22;37695;52.960;6.188;2022-10-19T03:21:09;9.00;99.90
51615;DHT22;37695;52.960;6.188;2022-10-19T03:23:35;9.10;99.90
51615;DHT22;37695;52.960;6.188;2022-10-19T03:26:01;9.10;99.90
51615;DHT22;37695;52.960;6.188;2022-10-19T03:28:27;9.10;99.90
51615;DHT22;37695;52.960;6.188;2022-10-19T03:30:53;9.10;99.90
51615;DHT22;37695;52.960;6.188;2022-10-19T03:33:18;9.10;99.90
51615;DHT22;37695;52.960;6.188;2022-10-19T03:35:44;9.10;99.90
51615;DHT22;37695;52.960;6.188;2022-10-19T03:38:10;9.20;99.90
51615;DHT22;37695;52.960;6.188;2022-10-19T03:40:36;9.20;99.90
51615;DHT22;37695;52.960;6.188;2022-10-19T03:43:01;9.20;99.90
51615;DHT22;37695;52.960;6.188;2022-10-19T03:45:27;9.30;99.90
51615;DHT22;37695;52.960;6.188;2022-10-19T03:47:52;9.30;99.90
51615;DHT22;37695;52.960;6.188;2022-10-19T03:50:18;9.30;99.90
51615;DHT22;37695;52.960;6.188;2022-10-19T03:52:45;9.30;99.90
51615;DHT22;37695;52.960;6.188;2022-10-19T03:55:11;9.30;99.90
51615;DHT22;37695;52.960;6.188;2022-10-19T03:57:37;9.30;99.90
51615;DHT22;37695;52.960;6.188;2022-10-19T04:00:06;9.30;99.90
51615;DHT22;37695;52.960;6.188;2022-10-19T04:02:32;9.30;99.90
51615;DHT22;37695;52.960;6.188;2022-10-19T04:04:58;9.30;99.90
51615;DHT22;37695;52.960;6.188;2022-10-19T04:07:23;9.30;99.90
51615;DHT22;37695;52.960;6.188;2022-10-19T04:09:49;9.40;99.90
51615;DHT22;37695;52.960;6.188;2022-10-19T04:12:14;9.30;99.90
51615;DHT22;37695;52.960;6.188;2022-10-19T04:14:40;9.30;99.90
51615;DHT22;37695;52.960;6.188;2022-10-19T04:17:06;9.30;99.90
51615;DHT22;37695;52.960;6.188;2022-10-19T04:19:31;9.30;99.90
51615;DHT22;37695;52.960;6.188;2022-10-19T04:21:57;9.30;99.90
51615;DHT22;37695;52.960;6.188;2022-10-19T04:24:23;9.30;99.90
51615;DHT22;37695;52.960;6.188;2022-10-19T04:26:51;9.30;99.90
51615;DHT22;37695;52.960;6.188;2022-10-19T04:29:19;9.30;99.90
51615;DHT22;37695;52.960;6.188;2022-10-19T04:31:47;9.30;99.90
51615;DHT22;37695;52.960;6.188;2022-10-19T04:34:12;9.20;99.90
51615;DHT22;37695;52.960;6.188;2022-10-19T04:36:38;9.20;99.90
51615;DHT22;37695;52.960;6.188;2022-10-19T04:39:04;9.20;99.90
51615;DHT22;37695;52.960;6.188;2022-10-19T04:41:30;9.20;99.90
51615;DHT22;37695;52.960;6.188;2022-10-19T04:43:58;9.30;99.90
51615;DHT22;37695;52.960;6.188;2022-10-19T04:46:25;9.20;99.90
51615;DHT22;37695;52.960;6.188;2022-10-19T04:48:51;9.20;99.90
51615;DHT22;37695;52.960;6.188;2022-10-19T04:51:18;9.20;99.90
51615;DHT22;37695;52.960;6.188;2022-10-19T04:53:44;9.20;99.90
51615;DHT22;37695;52.960;6.188;2022-10-19T04:56:16;9.20;99.90
51615;DHT22;37695;52.960;6.188;2022-10-19T04:58:42;9.20;99.90
51615;DHT22;37695;52.960;6.188;2022-10-19T05:03:37;9.10;99.90
51615;DHT22;37695;52.960;6.188;2022-10-19T05:06:04;9.10;99.90
51615;DHT22;37695;52.960;6.188;2022-10-19T05:08:30;9.10;99.90
51615;DHT22;37695;52.960;6.188;2022-10-19T05:11:03;9.00;99.90
51615;DHT22;37695;52.960;6.188;2022-10-19T05:13:33;7.90;99.90
51615;DHT22;37695;52.960;6.188;2022-10-19T05:16:00;8.90;99.90
51615;DHT22;37695;52.960;6.188;2022-10-19T05:18:26;8.90;99.90
51615;DHT22;37695;52.960;6.188;2022-10-19T05:21:00;8.90;99.90
51615;DHT22;37695;52.960;6.188;2022-10-19T05:23:26;8.90;99.90
51615;DHT22;37695;52.960;6.188;2022-10-19T05:26:00;8.90;99.90
51615;DHT22;37695;52.960;6.188;2022-10-19T05:28:26;8.90;99.90
51615;DHT22;37695;52.960;6.188;2022-10-19T05:30:52;8.90;99.90
51615;DHT22;37695;52.960;6.188;2022-10-19T05:33:17;8.90;99.90
51615;DHT22;37695;52.960;6.188;2022-10-19T05:35:43;9.00;99.90
51615;DHT22;37695;52.960;6.188;2022-10-19T05:38:08;9.00;99.90
51615;DHT22;37695;52.960;6.188;2022-10-19T05:40:34;9.00;99.90
51615;DHT22;37695;52.960;6.188;2022-10-19T05:42:59;9.00;99.90
51615;DHT22;37695;52.960;6.188;2022-10-19T05:45:25;9.00;99.90
51615;DHT22;37695;52.960;6.188;2022-10-19T05:47:50;9.10;99.90
51615;DHT22;37695;52.960;6.188;2022-10-19T05:50:16;9.10;99.90
51615;DHT22;37695;52.960;6.188;2022-10-19T05:52:41;9.10;99.90
51615;DHT22;37695;52.960;6.188;2022-10-19T05:55:07;9.10;99.90
51615;DHT22;37695;52.960;6.188;2022-10-19T05:57:33;9.20;99.90
51615;DHT22;37695;52.960;6.188;2022-10-19T05:59:59;9.20;99.90
51615;DHT22;37695;52.960;6.188;2022-10-19T06:02:24;9.20;99.90
51615;DHT22;37695;52.960;6.188;2022-10-19T06:04:50;9.20;99.90
51615;DHT22;37695;52.960;6.188;2022-10-19T06:07:15;9.20;99.90
51615;DHT22;37695;52.960;6.188;2022-10-19T06:09:41;9.20;99.90
51615;DHT22;37695;52.960;6.188;2022-10-19T06:12:06;9.30;99.90
51615;DHT22;37695;52.960;6.188;2022-10-19T06:14:32;9.30;99.90
51615;DHT22;37695;52.960;6.188;2022-10-19T06:16:57;9.30;99.90
51615;DHT22;37695;52.960;6.188;2022-10-19T06:19:23;9.30;99.90
51615;DHT22;37695;52.960;6.188;2022-10-19T06:21:48;8.90;99.90
51615;DHT22;37695;52.960;6.188;2022-10-19T06:24:14;9.30;99.90
51615;DHT22;37695;52.960;6.188;2022-10-19T06:26:39;9.40;99.90
51615;DHT22;37695;52.960;6.188;2022-10-19T06:29:05;9.40;99.90
51615;DHT22;37695;52.960;6.188;2022-10-19T06:31:33;9.50;99.90
51615;DHT22;37695;52.960;6.188;2022-10-19T06:33:59;9.50;99.90
51615;DHT22;37695;52.960;6.188;2022-10-19T06:36:27;9.50;99.90
51615;DHT22;37695;52.960;6.188;2022-10-19T06:38:53;9.60;99.90
51615;DHT22;37695;52.960;6.188;2022-10-19T06:41:21;9.50;99.90
51615;DHT22;37695;52.960;6.188;2022-10-19T06:43:50;9.60;99.90
51615;DHT22;37695;52.960;6.188;2022-10-19T06:46:18;9.60;99.90
51615;DHT22;37695;52.960;6.188;2022-10-19T06:48:55;9.60;99.90
51615;DHT22;37695;52.960;6.188;2022-10-19T06:51:21;9.60;99.90
51615;DHT22;37695;52.960;6.188;2022-10-19T06:53:47;9.70;99.90
51615;DHT22;37695;52.960;6.188;2022-10-19T06:56:13;9.70;99.90
51615;DHT22;37695;52.960;6.188;2022-10-19T06:58:39;9.70;99.90
51615;DHT22;37695;52.960;6.188;2022-10-19T07:01:06;10.00;99.90
51615;DHT22;37695;52.960;6.188;2022-10-19T07:03:32;9.80;99.90
51615;DHT22;37695;52.960;6.188;2022-10-19T07:05:59;9.80;99.90
51615;DHT22;37695;52.960;6.188;2022-10-19T07:08:26;9.80;99.90
51615;DHT22;37695;52.960;6.188;2022-10-19T07:10:55;9.80;99.90
51615;DHT22;37695;52.960;6.188;2022-10-19T07:13:21;9.80;99.90
51615;DHT22;37695;52.960;6.188;2022-10-19T07:15:47;9.80;99.90
51615;DHT22;37695;52.960;6.188;2022-10-19T07:18:13;9.90;99.90
51615;DHT22;37695;52.960;6.188;2022-10-19T07:20:39;10.00;99.90
51615;DHT22;37695;52.960;6.188;2022-10-19T07:23:05;10.00;99.90
51615;DHT22;37695;52.960;6.188;2022-10-19T07:25:30;10.00;99.90
51615;DHT22;37695;52.960;6.188;2022-10-19T07:27:56;10.10;99.90
51615;DHT22;37695;52.960;6.188;2022-10-19T07:30:22;10.20;99.90
51615;DHT22;37695;52.960;6.188;2022-10-19T07:32:48;10.20;99.90
51615;DHT22;37695;52.960;6.188;2022-10-19T07:35:14;10.30;99.90
51615;DHT22;37695;52.960;6.188;2022-10-19T07:37:39;10.40;99.90
51615;DHT22;37695;52.960;6.188;2022-10-19T07:40:05;10.40;99.90
51615;DHT22;37695;52.960;6.188;2022-10-19T07:42:31;10.50;99.90
51615;DHT22;37695;52.960;6.188;2022-10-19T07:44:56;10.50;99.90
51615;DHT22;37695;52.960;6.188;2022-10-19T07:47:22;10.60;99.90
51615;DHT22;37695;52.960;6.188;2022-10-19T07:49:48;10.70;99.90
51615;DHT22;37695;52.960;6.188;2022-10-19T07:52:13;10.70;99.90
51615;DHT22;37695;52.960;6.188;2022-10-19T07:54:39;10.80;99.90
51615;DHT22;37695;52.960;6.188;2022-10-19T07:57:04;10.80;99.90
51615;DHT22;37695;52.960;6.188;2022-10-19T07:59:30;10.90;99.90
51615;DHT22;37695;52.960;6.188;2022-10-19T08:01:56;10.20;99.90
51615;DHT22;37695;52.960;6.188;2022-10-19T08:04:22;11.10;99.90
51615;DHT22;37695;52.960;6.188;2022-10-19T08:06:48;11.20;99.90
51615;DHT22;37695;52.960;6.188;2022-10-19T08:09:13;11.30;99.90
51615;DHT22;37695;52.960;6.188;2022-10-19T08:11:39;11.40;99.90
51615;DHT22;37695;52.960;6.188;2022-10-19T08:14:05;11.40;99.90
51615;DHT22;37695;52.960;6.188;2022-10-19T08:16:37;11.50;99.90
51615;DHT22;37695;52.960;6.188;2022-10-19T08:19:10;11.60;99.90
51615;DHT22;37695;52.960;6.188;2022-10-19T08:21:37;11.60;99.90
51615;DHT22;37695;52.960;6.188;2022-10-19T08:24:03;11.70;99.90
51615;DHT22;37695;52.960;6.188;2022-10-19T08:26:31;11.70;99.90
51615;DHT22;37695;52.960;6.188;2022-10-19T08:29:09;11.80;99.90
51615;DHT22;37695;52.960;6.188;2022-10-19T08:31:36;11.80;99.90
51615;DHT22;37695;52.960;6.188;2022-10-19T08:34:02;11.80;99.90
51615;DHT22;37695;52.960;6.188;2022-10-19T08:36:28;11.90;99.90
51615;DHT22;37695;52.960;6.188;2022-10-19T08:38:56;12.00;99.90
51615;DHT22;37695;52.960;6.188;2022-10-19T08:49:33;12.20;99.90
51615;DHT22;37695;52.960;6.188;2022-10-19T08:52:06;12.20;99.90
51615;DHT22;37695;52.960;6.188;2022-10-19T08:54:49;12.30;99.90
51615;DHT22;37695;52.960;6.188;2022-10-19T08:57:39;12.30;99.90
51615;DHT22;37695;52.960;6.188;2022-10-19T09:00:30;12.40;99.90
51615;DHT22;37695;52.960;6.188;2022-10-19T09:03:21;12.40;99.90
51615;DHT22;37695;52.960;6.188;2022-10-19T09:06:04;12.40;99.90
51615;DHT22;37695;52.960;6.188;2022-10-19T09:08:38;12.50;99.90
51615;DHT22;37695;52.960;6.188;2022-10-19T09:11:05;12.50;99.90
51615;DHT22;37695;52.960;6.188;2022-10-19T09:13:43;12.50;99.90
51615;DHT22;37695;52.960;6.188;2022-10-19T09:16:13;12.50;99.90
51615;DHT22;37695;52.960;6.188;2022-10-19T09:18:39;12.60;99.90
51615;DHT22;37695;52.960;6.188;2022-10-19T09:21:17;12.60;99.90
51615;DHT22;37695;52.960;6.188;2022-10-19T09:23:56;12.50;99.90
51615;DHT22;37695;52.960;6.188;2022-10-19T09:26:32;12.50;99.90
51615;DHT22;37695;52.960;6.188;2022-10-19T09:29:00;12.60;99.90
51615;DHT22;37695;52.960;6.188;2022-10-19T09:31:32;12.60;99.90
51615;DHT22;37695;52.960;6.188;2022-10-19T09:34:05;13.60;99.90
51615;DHT22;37695;52.960;6.188;2022-10-19T09:36:39;12.70;99.90
51615;DHT22;37695;52.960;6.188;2022-10-19T09:39:06;12.70;99.90
51615;DHT22;37695;52.960;6.188;2022-10-19T09:41:33;12.70;99.90
51615;DHT22;37695;52.960;6.188;2022-10-19T09:43:59;12.70;99.90
51615;DHT22;37695;52.960;6.188;2022-10-19T09:46:26;12.70;99.90
51615;DHT22;37695;52.960;6.188;2022-10-19T09:48:53;12.80;99.90
51615;DHT22;37695;52.960;6.188;2022-10-19T09:51:19;12.80;99.90
51615;DHT22;37695;52.960;6.188;2022-10-19T09:53:53;12.90;99.90
51615;DHT22;37695;52.960;6.188;2022-10-19T09:56:26;13.00;99.90
51615;DHT22;37695;52.960;6.188;2022-10-19T09:58:56;13.00;99.90
51615;DHT22;37695;52.960;6.188;2022-10-19T10:04:16;13.00;99.90
51615;DHT22;37695;52.960;6.188;2022-10-19T10:06:45;13.00;99.90
51615;DHT22;37695;52.960;6.188;2022-10-19T10:09:20;13.10;99.90
51615;DHT22;37695;52.960;6.188;2022-10-19T10:11:49;13.10;99.90
51615;DHT22;37695;52.960;6.188;2022-10-19T10:14:36;13.20;99.90
51615;DHT22;37695;52.960;6.188;2022-10-19T10:17:06;13.30;99.90
51615;DHT22;37695;52.960;6.188;2022-10-19T10:20:33;13.30;99.90
51615;DHT22;37695;52.960;6.188;2022-10-19T10:22:34;13.40;99.90
51615;DHT22;37695;52.960;6.188;2022-10-19T10:25:01;13.40;99.90
51615;DHT22;37695;52.960;6.188;2022-10-19T10:29:58;13.30;99.90
51615;DHT22;37695;52.960;6.188;2022-10-19T10:32:28;13.30;99.90
51615;DHT22;37695;52.960;6.188;2022-10-19T10:35:02;13.30;99.90
51615;DHT22;37695;52.960;6.188;2022-10-19T10:37:41;13.30;99.90
51615;DHT22;37695;52.960;6.188;2022-10-19T10:40:28;13.30;99.90
51615;DHT22;37695;52.960;6.188;2022-10-19T10:42:56;13.30;99.90
51615;DHT22;37695;52.960;6.188;2022-10-19T10:45:45;13.30;99.90
51615;DHT22;37695;52.960;6.188;2022-10-19T10:48:29;13.30;99.90
51615;DHT22;37695;52.960;6.188;2022-10-19T10:50:59;13.40;99.90
51615;DHT22;37695;52.960;6.188;2022-10-19T10:56:03;13.40;99.90
51615;DHT22;37695;52.960;6.188;2022-10-19T10:58:49;13.40;99.90
51615;DHT22;37695;52.960;6.188;2022-10-19T11:01:19;13.40;99.90
51615;DHT22;37695;52.960;6.188;2022-10-19T11:03:51;13.50;99.90
51615;DHT22;37695;52.960;6.188;2022-10-19T11:06:21;13.60;99.90
51615;DHT22;37695;52.960;6.188;2022-10-19T11:09:24;13.90;99.90
51615;DHT22;37695;52.960;6.188;2022-10-19T11:11:43;13.90;99.90
51615;DHT22;37695;52.960;6.188;2022-10-19T11:14:29;13.90;99.90
51615;DHT22;37695;52.960;6.188;2022-10-19T11:16:58;13.80;99.90
51615;DHT22;37695;52.960;6.188;2022-10-19T11:19:41;13.90;99.90
51615;DHT22;37695;52.960;6.188;2022-10-19T11:22:27;13.90;99.90
51615;DHT22;37695;52.960;6.188;2022-10-19T11:25:08;14.10;99.90
51615;DHT22;37695;52.960;6.188;2022-10-19T11:30:19;14.40;99.90
51615;DHT22;37695;52.960;6.188;2022-10-19T11:33:04;14.30;99.90
51615;DHT22;37695;52.960;6.188;2022-10-19T11:35:51;14.20;99.90
51615;DHT22;37695;52.960;6.188;2022-10-19T11:38:34;14.10;99.90
51615;DHT22;37695;52.960;6.188;2022-10-19T11:47:13;13.90;99.90
51615;DHT22;37695;52.960;6.188;2022-10-19T11:50:24;13.90;99.90
51615;DHT22;37695;52.960;6.188;2022-10-19T11:58:47;13.90;99.90
51615;DHT22;37695;52.960;6.188;2022-10-19T12:01:47;14.10;99.90
51615;DHT22;37695;52.960;6.188;2022-10-19T12:07:13;14.50;99.90
51615;DHT22;37695;52.960;6.188;2022-10-19T12:09:58;14.50;99.90
51615;DHT22;37695;52.960;6.188;2022-10-19T12:12:40;14.50;99.90
51615;DHT22;37695;52.960;6.188;2022-10-19T12:17:47;14.20;99.90
51615;DHT22;37695;52.960;6.188;2022-10-19T12:22:49;14.00;99.90
51615;DHT22;37695;52.960;6.188;2022-10-19T12:25:16;13.90;99.90
51615;DHT22;37695;52.960;6.188;2022-10-19T12:27:42;13.90;99.90
51615;DHT22;37695;52.960;6.188;2022-10-19T12:30:18;13.90;99.90
51615;DHT22;37695;52.960;6.188;2022-10-19T12:33:14;14.00;99.90
51615;DHT22;37695;52.960;6.188;2022-10-19T12:36:02;14.10;99.90
51615;DHT22;37695;52.960;6.188;2022-10-19T12:38:58;14.20;99.90
51615;DHT22;37695;52.960;6.188;2022-10-19T12:41:25;14.20;99.90
51615;DHT22;37695;52.960;6.188;2022-10-19T12:44:20;14.20;99.90
51615;DHT22;37695;52.960;6.188;2022-10-19T12:46:50;14.20;99.90
51615;DHT22;37695;52.960;6.188;2022-10-19T12:52:00;14.20;99.90
51615;DHT22;37695;52.960;6.188;2022-10-19T12:54:27;14.10;99.90
51615;DHT22;37695;52.960;6.188;2022-10-19T12:56:56;14.10;99.90
51615;DHT22;37695;52.960;6.188;2022-10-19T12:59:35;14.10;99.90
51615;DHT22;37695;52.960;6.188;2022-10-19T13:02:04;14.10;99.90
51615;DHT22;37695;52.960;6.188;2022-10-19T13:04:34;14.10;99.90
51615;DHT22;37695;52.960;6.188;2022-10-19T13:07:05;14.20;99.90
51615;DHT22;37695;52.960;6.188;2022-10-19T13:09:38;14.20;99.90
51615;DHT22;37695;52.960;6.188;2022-10-19T13:14:58;14.30;99.90
51615;DHT22;37695;52.960;6.188;2022-10-19T13:22:41;14.10;99.90
51615;DHT22;37695;52.960;6.188;2022-10-19T13:27:41;13.90;99.90
51615;DHT22;37695;52.960;6.188;2022-10-19T13:31:14;13.80;99.90
51615;DHT22;37695;52.960;6.188;2022-10-19T13:38:44;13.50;99.90
51615;DHT22;37695;52.960;6.188;2022-10-19T13:41:22;13.50;99.90
51615;DHT22;37695;52.960;6.188;2022-10-19T13:49:22;13.70;99.90
51615;DHT22;37695;52.960;6.188;2022-10-19T14:00:21;13.60;99.90
51615;DHT22;37695;52.960;6.188;2022-10-19T14:05:53;13.60;99.90
51615;DHT22;37695;52.960;6.188;2022-10-19T14:11:17;13.60;99.90
51615;DHT22;37695;52.960;6.188;2022-10-19T14:13:44;13.60;99.90
51615;DHT22;37695;52.960;6.188;2022-10-19T14:16:18;13.60;99.90
51615;DHT22;37695;52.960;6.188;2022-10-19T14:18:52;14.10;99.90
51615;DHT22;37695;52.960;6.188;2022-10-19T14:21:27;13.60;99.90
51615;DHT22;37695;52.960;6.188;2022-10-19T14:23:53;13.50;99.90
51615;DHT22;37695;52.960;6.188;2022-10-19T14:26:21;13.50;99.90
51615;DHT22;37695;52.960;6.188;2022-10-19T14:28:55;13.40;99.90
51615;DHT22;37695;52.960;6.188;2022-10-19T14:31:28;13.40;99.90
51615;DHT22;37695;52.960;6.188;2022-10-19T14:34:00;13.40;99.90
51615;DHT22;37695;52.960;6.188;2022-10-19T14:36:31;13.40;99.90
51615;DHT22;37695;52.960;6.188;2022-10-19T14:38:58;13.30;99.90
51615;DHT22;37695;52.960;6.188;2022-10-19T14:43:57;13.20;99.90
51615;DHT22;37695;52.960;6.188;2022-10-19T14:46:27;13.10;99.90
51615;DHT22;37695;52.960;6.188;2022-10-19T14:49:01;13.10;99.90
51615;DHT22;37695;52.960;6.188;2022-10-19T14:52:01;13.00;99.90
51615;DHT22;37695;52.960;6.188;2022-10-19T14:54:26;13.00;99.90
51615;DHT22;37695;52.960;6.188;2022-10-19T14:57:04;12.90;99.90
51615;DHT22;37695;52.960;6.188;2022-10-19T14:59:46;12.80;99.90
51615;DHT22;37695;52.960;6.188;2022-10-19T15:02:28;12.70;99.90
51615;DHT22;37695;52.960;6.188;2022-10-19T15:04:56;12.70;99.90
51615;DHT22;37695;52.960;6.188;2022-10-19T15:07:34;12.60;99.90
51615;DHT22;37695;52.960;6.188;2022-10-19T15:10:04;12.60;99.90
51615;DHT22;37695;52.960;6.188;2022-10-19T15:12:38;12.60;99.90
51615;DHT22;37695;52.960;6.188;2022-10-19T15:15:26;12.50;99.90
51615;DHT22;37695;52.960;6.188;2022-10-19T15:20:38;12.40;99.90
51615;DHT22;37695;52.960;6.188;2022-10-19T15:23:31;12.40;99.90
51615;DHT22;37695;52.960;6.188;2022-10-19T15:25:58;12.30;99.90
51615;DHT22;37695;52.960;6.188;2022-10-19T15:28:32;12.30;99.90
51615;DHT22;37695;52.960;6.188;2022-10-19T15:31:11;12.30;99.90
51615;DHT22;37695;52.960;6.188;2022-10-19T15:33:41;12.20;99.90
51615;DHT22;37695;52.960;6.188;2022-10-19T15:36:09;12.20;99.90
51615;DHT22;37695;52.960;6.188;2022-10-19T15:38:42;12.10;99.90
51615;DHT22;37695;52.960;6.188;2022-10-19T15:41:23;12.00;99.90
51615;DHT22;37695;52.960;6.188;2022-10-19T15:43:52;12.00;99.90
51615;DHT22;37695;52.960;6.188;2022-10-19T15:46:22;12.00;99.90
51615;DHT22;37695;52.960;6.188;2022-10-19T15:48:50;11.90;99.90
51615;DHT22;37695;52.960;6.188;2022-10-19T15:56:18;11.80;99.90
51615;DHT22;37695;52.960;6.188;2022-10-19T15:58:47;11.70;99.90
51615;DHT22;37695;52.960;6.188;2022-10-19T16:01:16;11.70;99.90
51615;DHT22;37695;52.960;6.188;2022-10-19T16:03:41;11.60;99.90
51615;DHT22;37695;52.960;6.188;2022-10-19T16:06:07;11.50;99.90
51615;DHT22;37695;52.960;6.188;2022-10-19T16:08:33;11.40;99.90
51615;DHT22;37695;52.960;6.188;2022-10-19T16:10:59;11.40;99.90
51615;DHT22;37695;52.960;6.188;2022-10-19T16:13:24;11.40;99.90
51615;DHT22;37695;52.960;6.188;2022-10-19T16:15:51;11.30;99.90
51615;DHT22;37695;52.960;6.188;2022-10-19T16:18:18;11.20;99.90
51615;DHT22;37695;52.960;6.188;2022-10-19T16:20:43;11.20;99.90
51615;DHT22;37695;52.960;6.188;2022-10-19T16:23:09;11.10;99.90
51615;DHT22;37695;52.960;6.188;2022-10-19T16:25:36;11.10;99.90
51615;DHT22;37695;52.960;6.188;2022-10-19T16:28:02;11.00;99.90
51615;DHT22;37695;52.960;6.188;2022-10-19T16:30:28;10.90;99.90
51615;DHT22;37695;52.960;6.188;2022-10-19T16:32:53;10.90;99.90
51615;DHT22;37695;52.960;6.188;2022-10-19T16:35:19;10.90;99.90
51615;DHT22;37695;52.960;6.188;2022-10-19T16:37:44;10.80;99.90
51615;DHT22;37695;52.960;6.188;2022-10-19T16:40:10;11.80;99.90
51615;DHT22;37695;52.960;6.188;2022-10-19T16:42:35;10.60;99.90
51615;DHT22;37695;52.960;6.188;2022-10-19T16:45:01;10.50;99.90
51615;DHT22;37695;52.960;6.188;2022-10-19T16:47:27;10.50;99.90
51615;DHT22;37695;52.960;6.188;2022-10-19T16:49:57;10.40;99.90
51615;DHT22;37695;52.960;6.188;2022-10-19T16:52:25;10.40;99.90
51615;DHT22;37695;52.960;6.188;2022-10-19T16:54:50;10.30;99.90
51615;DHT22;37695;52.960;6.188;2022-10-19T16:57:16;10.30;99.90
51615;DHT22;37695;52.960;6.188;2022-10-19T16:59:41;10.30;99.90
51615;DHT22;37695;52.960;6.188;2022-10-19T17:02:09;10.20;99.90
51615;DHT22;37695;52.960;6.188;2022-10-19T17:04:35;10.20;99.90
51615;DHT22;37695;52.960;6.188;2022-10-19T17:07:00;10.10;99.90
51615;DHT22;37695;52.960;6.188;2022-10-19T17:09:26;10.10;99.90
51615;DHT22;37695;52.960;6.188;2022-10-19T17:11:52;10.10;99.90
51615;DHT22;37695;52.960;6.188;2022-10-19T17:14:17;10.00;99.90
51615;DHT22;37695;52.960;6.188;2022-10-19T17:16:43;10.00;99.90
51615;DHT22;37695;52.960;6.188;2022-10-19T17:19:09;10.00;99.90
51615;DHT22;37695;52.960;6.188;2022-10-19T17:21:36;9.90;99.90
51615;DHT22;37695;52.960;6.188;2022-10-19T17:24:03;9.90;99.90
51615;DHT22;37695;52.960;6.188;2022-10-19T17:26:35;9.90;99.90
51615;DHT22;37695;52.960;6.188;2022-10-19T17:29:01;9.90;99.90
51615;DHT22;37695;52.960;6.188;2022-10-19T17:31:27;9.80;99.90
51615;DHT22;37695;52.960;6.188;2022-10-19T17:33:54;9.80;99.90
51615;DHT22;37695;52.960;6.188;2022-10-19T17:36:25;9.80;99.90
51615;DHT22;37695;52.960;6.188;2022-10-19T17:38:56;9.70;99.90
51615;DHT22;37695;52.960;6.188;2022-10-19T17:41:23;9.60;99.90